Time;durP1;ratioP1;P1;durP2;ratioP2;P2;SDS_P1;SDS_P2;PMS_P1;PMS_P2;Temp;Humidity;BMP_temperature;BMP_pressure;BME280_temperature;BME280_humidity;BME280_pressure;Samples;Min_cycle;Max_cycle;Signal;HPM_P1;HPM_P2
2023/07/09 00:01:05;;;;;;;16.05;4.50;;;;;;;29.93;42.87;101448.34;4937484;28;20443;-64
2023/07/09 00:03:30;;;;;;;11.77;5.18;;;;;;;29.88;42.23;101447.41;4937244;28;20040;-64
2023/07/09 00:05:56;;;;;;;10.68;5.38;;;;;;;29.83;42.64;101448.13;4937123;28;20376;-64
2023/07/09 00:08:27;;;;;;;10.52;4.95;;;;;;;29.80;43.42;101447.78;4921631;29;20052;-64
2023/07/09 00:10:57;;;;;;;11.82;4.85;;;;;;;29.79;42.61;101451.56;4921090;29;20040;-64
2023/07/09 00:13:24;;;;;;;9.88;4.55;;;;;;;29.77;43.21;101448.22;4953198;28;20058;-64
2023/07/09 00:15:50;;;;;;;6.93;4.47;;;;;;;29.75;43.06;101444.84;4937499;28;20056;-64
2023/07/09 00:18:16;;;;;;;9.90;5.40;;;;;;;29.71;43.01;101444.50;4953420;28;20159;-64
2023/07/09 00:20:43;;;;;;;8.80;5.25;;;;;;;29.67;43.04;101445.22;4938576;28;20500;-64
2023/07/09 00:23:09;;;;;;;8.88;4.07;;;;;;;29.63;43.17;101449.53;4937328;28;20555;-64
2023/07/09 00:25:35;;;;;;;7.75;4.57;;;;;;;29.61;43.79;101451.69;4937060;28;20492;-64
2023/07/09 00:28:01;;;;;;;12.73;5.18;;;;;;;29.57;43.80;101461.53;4921388;29;20435;-63
2023/07/09 00:30:27;;;;;;;13.90;5.18;;;;;;;29.54;43.64;101445.47;4936734;28;20039;-63
2023/07/09 00:32:54;;;;;;;9.45;5.22;;;;;;;29.51;42.88;101451.47;4920876;29;20031;-63
2023/07/09 00:35:20;;;;;;;10.57;5.40;;;;;;;29.47;42.97;101453.00;4938126;28;20044;-64
2023/07/09 00:37:46;;;;;;;13.80;5.43;;;;;;;29.44;43.00;101451.56;4936787;28;20150;-65
2023/07/09 00:40:18;;;;;;;11.10;4.20;;;;;;;29.40;43.85;101456.72;4920816;29;20515;-64
2023/07/09 00:42:47;;;;;;;12.05;5.88;;;;;;;29.37;43.82;101454.44;4918438;29;20036;-64
2023/07/09 00:45:23;;;;;;;9.05;4.68;;;;;;;29.35;43.92;101450.22;4952504;28;20058;-64
2023/07/09 00:47:57;;;;;;;6.50;4.35;;;;;;;29.34;43.60;101449.38;4937125;28;20032;-64
2023/07/09 00:50:29;;;;;;;13.77;4.97;;;;;;;29.30;43.55;101458.38;4937716;28;20036;-64
2023/07/09 00:52:57;;;;;;;15.35;4.47;;;;;;;29.22;44.06;101448.53;4956642;28;20070;-65
2023/07/09 00:55:26;;;;;;;12.82;5.03;;;;;;;29.20;44.32;101452.56;4955521;28;20110;-64
2023/07/09 00:57:58;;;;;;;13.45;5.55;;;;;;;29.17;44.22;101453.03;4955574;28;20050;-64
2023/07/09 01:00:48;;;;;;;11.60;5.20;;;;;;;29.13;44.12;101457.34;4940053;28;20019;-64
2023/07/09 01:03:42;;;;;;;13.30;5.32;;;;;;;29.06;43.78;101451.09;4940766;28;20368;-63
2023/07/09 01:06:07;;;;;;;10.63;4.32;;;;;;;29.03;43.51;101457.94;4953961;28;20039;-64
2023/07/09 01:08:35;;;;;;;9.27;4.50;;;;;;;28.95;44.11;101449.97;4971410;28;20045;-63
2023/07/09 01:11:00;;;;;;;10.98;4.55;;;;;;;28.94;44.38;101450.22;4956591;28;20419;-64
2023/07/09 01:13:27;;;;;;;10.23;5.00;;;;;;;28.92;44.39;101455.97;4956460;28;20565;-64
2023/07/09 01:15:53;;;;;;;10.52;5.60;;;;;;;28.88;44.41;101455.59;4955259;28;20047;-64
2023/07/09 01:18:18;;;;;;;6.82;5.10;;;;;;;28.85;44.50;101455.22;4955116;28;20035;-63
2023/07/09 01:20:44;;;;;;;13.35;5.47;;;;;;;28.82;44.50;101452.91;4955145;28;20517;-64
2023/07/09 01:23:10;;;;;;;10.10;5.10;;;;;;;28.81;44.77;101451.25;4955090;28;20043;-64
2023/07/09 01:25:41;;;;;;;10.82;5.07;;;;;;;28.76;44.19;101451.94;4939131;28;20105;-64
2023/07/09 01:28:07;;;;;;;12.50;6.03;;;;;;;28.76;44.26;101456.59;4971127;28;20153;-65
2023/07/09 01:30:36;;;;;;;17.58;5.90;;;;;;;28.75;44.69;101449.44;4954947;28;20134;-64
2023/07/09 01:33:02;;;;;;;9.73;5.40;;;;;;;28.74;44.79;101453.25;4987690;28;20031;-65
2023/07/09 01:35:31;;;;;;;13.55;5.25;;;;;;;28.73;45.05;101451.56;4971028;28;20038;-64
2023/07/09 01:37:56;;;;;;;11.40;5.30;;;;;;;28.71;45.67;101450.97;4956147;28;20503;-63
2023/07/09 01:40:24;;;;;;;10.23;4.90;;;;;;;28.70;45.33;101447.34;4955072;28;20039;-64
2023/07/09 01:42:51;;;;;;;8.68;4.53;;;;;;;28.70;45.35;101447.34;4956084;28;20054;-65
2023/07/09 01:45:16;;;;;;;8.38;4.20;;;;;;;28.71;44.85;101449.03;4956012;28;20042;-64
2023/07/09 01:47:43;;;;;;;9.43;5.13;;;;;;;28.71;45.15;101448.19;4987113;28;20126;-64
2023/07/09 01:50:10;;;;;;;8.00;4.75;;;;;;;28.72;44.89;101450.75;4954520;28;20118;-64
2023/07/09 01:52:36;;;;;;;9.93;4.88;;;;;;;28.72;45.30;101447.13;4954412;28;20035;-64
2023/07/09 01:55:03;;;;;;;10.32;4.15;;;;;;;28.73;45.00;101451.56;4986824;28;20050;-64
2023/07/09 01:57:33;;;;;;;9.68;4.90;;;;;;;28.71;45.22;101448.19;4955426;28;20031;-62
2023/07/09 02:00:01;;;;;;;9.73;5.57;;;;;;;28.72;45.22;101456.25;4954494;28;20035;-63
2023/07/09 02:02:27;;;;;;;11.13;4.72;;;;;;;28.71;46.24;101462.00;4970512;28;20046;-62
2023/07/09 02:04:54;;;;;;;9.35;4.82;;;;;;;28.70;45.07;101454.81;4954557;28;20454;-62
2023/07/09 02:07:21;;;;;;;10.52;5.28;;;;;;;28.72;45.16;101456.25;4938711;28;20532;-62
2023/07/09 02:09:47;;;;;;;12.40;4.75;;;;;;;28.73;46.17;101463.44;4955044;28;20058;-62
2023/07/09 02:12:13;;;;;;;8.52;4.72;;;;;;;28.74;46.24;101458.78;4953164;28;20050;-63
2023/07/09 02:14:39;;;;;;;11.45;5.05;;;;;;;28.74;45.10;101462.38;4954177;28;20073;-63
2023/07/09 02:17:05;;;;;;;9.38;4.97;;;;;;;28.73;46.13;101457.91;4938186;28;20042;-62
2023/07/09 02:19:31;;;;;;;10.02;4.53;;;;;;;28.71;45.46;101459.22;4955536;28;20039;-62
2023/07/09 02:21:57;;;;;;;7.40;4.25;;;;;;;28.68;45.77;101462.44;4955353;28;20450;-62
2023/07/09 02:24:24;;;;;;;7.28;4.40;;;;;;;28.64;45.61;101453.81;4986472;28;20035;-62
2023/07/09 02:26:51;;;;;;;7.85;4.47;;;;;;;28.61;45.70;101462.53;4955162;28;20399;-62
2023/07/09 02:29:17;;;;;;;7.70;4.07;;;;;;;28.58;45.74;101463.00;4953850;28;20027;-62
2023/07/09 02:31:43;;;;;;;7.88;4.40;;;;;;;28.57;45.38;101463.19;4953696;28;20038;-64
2023/07/09 02:34:08;;;;;;;8.00;4.85;;;;;;;28.54;45.66;101464.50;4954943;28;20050;-63
2023/07/09 02:36:34;;;;;;;12.20;4.15;;;;;;;28.54;45.65;101471.94;4969816;28;20028;-62
2023/07/09 02:38:59;;;;;;;11.73;5.40;;;;;;;28.51;46.36;101469.63;4953884;28;20439;-63
2023/07/09 02:41:25;;;;;;;14.05;4.82;;;;;;;28.48;46.26;101470.09;4953587;28;20098;-62
2023/07/09 02:43:50;;;;;;;13.68;5.50;;;;;;;28.45;45.75;101471.41;4952664;28;20165;-62
2023/07/09 02:46:15;;;;;;;10.80;4.93;;;;;;;28.42;46.39;101477.38;4953582;28;20035;-62
2023/07/09 02:48:41;;;;;;;9.02;5.03;;;;;;;28.39;46.58;101477.88;4937661;28;20063;-62
2023/07/09 02:51:06;;;;;;;9.35;5.25;;;;;;;28.36;46.37;101478.31;4953364;28;20031;-62
2023/07/09 02:53:31;;;;;;;12.25;4.05;;;;;;;28.33;45.61;101473.28;4969405;28;20045;-62
2023/07/09 02:55:57;;;;;;;10.15;4.93;;;;;;;28.30;46.69;101471.81;4937434;28;20483;-62
2023/07/09 02:58:22;;;;;;;8.48;4.90;;;;;;;28.29;46.65;101472.88;4969261;28;20034;-62
2023/07/09 03:00:53;;;;;;;8.85;4.72;;;;;;;28.26;46.44;101470.59;4953485;28;20055;-62
2023/07/09 03:03:20;;;;;;;16.35;4.78;;;;;;;28.25;46.24;101470.81;4937822;28;20406;-62
2023/07/09 03:05:46;;;;;;;9.30;5.50;;;;;;;28.23;46.17;101461.94;4952959;28;20050;-64
2023/07/09 03:08:11;;;;;;;21.75;5.63;;;;;;;28.20;46.21;101463.22;4937633;28;20023;-64
2023/07/09 03:10:37;;;;;;;18.35;5.82;;;;;;;28.17;46.17;101469.19;4952242;28;20054;-63
2023/07/09 03:13:02;;;;;;;17.10;4.60;;;;;;;28.15;46.08;101471.34;4954703;28;20049;-64
2023/07/09 03:15:28;;;;;;;9.05;4.63;;;;;;;28.10;45.78;101468.44;4953265;28;20043;-63
2023/07/09 03:17:53;;;;;;;9.90;5.03;;;;;;;28.06;45.75;101461.69;4969375;28;20558;-63
2023/07/09 03:20:18;;;;;;;14.30;5.05;;;;;;;28.05;46.41;101465.53;4954445;28;20059;-64
2023/07/09 03:22:44;;;;;;;8.63;4.88;;;;;;;28.04;46.92;101463.84;4937164;28;20086;-63
2023/07/09 03:25:09;;;;;;;18.48;4.88;;;;;;;28.03;46.70;101467.66;4953264;28;20034;-63
2023/07/09 03:27:34;;;;;;;7.60;5.35;;;;;;;27.99;46.27;101466.41;4937345;28;20463;-64
2023/07/09 03:30:00;;;;;;;10.35;4.53;;;;;;;27.98;47.15;101470.22;4954240;28;20498;-63
2023/07/09 03:32:25;;;;;;;17.17;5.20;;;;;;;27.95;46.64;101470.69;4953104;28;20031;-64
2023/07/09 03:34:52;;;;;;;11.80;4.85;;;;;;;27.92;46.32;101464.81;4937159;28;20031;-64
2023/07/09 03:37:18;;;;;;;17.27;5.28;;;;;;;27.90;47.13;101472.44;4953139;28;20027;-64
2023/07/09 03:39:45;;;;;;;10.52;5.60;;;;;;;27.90;46.34;101473.28;4953076;28;20043;-63
2023/07/09 03:42:11;;;;;;;9.10;5.15;;;;;;;27.86;46.91;101468.47;4985591;28;20106;-63
2023/07/09 03:44:36;;;;;;;10.57;5.32;;;;;;;27.87;46.67;101478.38;4954418;28;20030;-63
2023/07/09 03:47:02;;;;;;;12.35;4.70;;;;;;;27.85;46.12;101475.03;4969300;28;20550;-63
2023/07/09 03:49:27;;;;;;;13.65;5.43;;;;;;;27.84;47.00;101474.19;4968901;28;20113;-63
2023/07/09 03:51:52;;;;;;;15.05;5.03;;;;;;;27.84;46.93;101479.69;4968893;28;20046;-63
2023/07/09 03:54:18;;;;;;;19.77;5.47;;;;;;;27.83;47.14;101479.94;4936943;28;20058;-64
2023/07/09 03:56:44;;;;;;;10.15;5.53;;;;;;;27.85;47.01;101475.03;4953168;28;20032;-63
2023/07/09 03:59:09;;;;;;;10.60;5.28;;;;;;;27.85;46.63;101477.78;4937390;28;20520;-63
2023/07/09 04:01:35;;;;;;;13.25;4.78;;;;;;;27.86;46.77;101483.09;4937237;28;20035;-63
2023/07/09 04:04:00;;;;;;;11.77;5.10;;;;;;;27.86;46.88;101476.72;4954458;28;20054;-65
2023/07/09 04:06:26;;;;;;;17.77;4.82;;;;;;;27.88;47.28;101486.44;4954049;28;20035;-65
2023/07/09 04:08:51;;;;;;;12.88;4.03;;;;;;;27.90;46.59;101487.06;4954197;28;20475;-64
2023/07/09 04:11:16;;;;;;;17.48;6.22;;;;;;;27.89;47.24;101488.09;4952494;28;20105;-65
2023/07/09 04:13:42;;;;;;;19.45;5.70;;;;;;;27.91;46.79;101486.00;4952819;28;20050;-64
2023/07/09 04:16:07;;;;;;;11.88;4.72;;;;;;;27.92;47.55;101482.16;4952877;28;20504;-63
2023/07/09 04:18:33;;;;;;;10.90;5.15;;;;;;;27.92;46.72;101493.16;4952923;28;20471;-63
2023/07/09 04:20:58;;;;;;;8.48;5.25;;;;;;;27.93;47.21;101485.75;4953695;28;20031;-64
2023/07/09 04:23:23;;;;;;;8.90;5.15;;;;;;;27.95;46.68;101487.22;4956276;28;20034;-63
2023/07/09 04:25:49;;;;;;;9.50;4.93;;;;;;;27.97;47.20;101487.84;4956049;28;20027;-63
2023/07/09 04:28:15;;;;;;;9.23;5.00;;;;;;;28.03;46.74;101486.94;4956039;28;20454;-63
2023/07/09 04:30:48;;;;;;;11.65;5.13;;;;;;;28.07;46.73;101490.94;4955991;28;20051;-63
2023/07/09 04:33:17;;;;;;;11.63;5.25;;;;;;;28.13;47.66;101486.44;4940231;28;20053;-64
2023/07/09 04:35:43;;;;;;;11.57;4.88;;;;;;;28.16;47.45;101478.56;4958061;28;20073;-64
2023/07/09 04:38:09;;;;;;;8.43;5.28;;;;;;;28.25;47.67;101479.09;4943777;28;20450;-64
2023/07/09 04:40:36;;;;;;;11.95;4.82;;;;;;;28.30;47.37;101477.34;4958472;28;20058;-64
2023/07/09 04:43:01;;;;;;;9.30;4.97;;;;;;;28.38;46.77;101475.31;4942763;28;20109;-64
2023/07/09 04:45:27;;;;;;;12.05;5.20;;;;;;;28.45;47.57;101476.09;4958105;28;20196;-64
2023/07/09 04:47:52;;;;;;;8.93;4.80;;;;;;;28.52;46.71;101476.84;4956458;28;20035;-64
2023/07/09 04:50:18;;;;;;;9.85;5.30;;;;;;;28.57;47.25;101474.22;4955933;28;20036;-64
2023/07/09 04:52:43;;;;;;;11.32;5.18;;;;;;;28.68;46.67;101473.47;4939848;28;20082;-64
2023/07/09 04:55:09;;;;;;;11.45;4.65;;;;;;;28.75;46.53;101465.97;4957026;28;20035;-63
2023/07/09 04:57:34;;;;;;;9.27;5.03;;;;;;;28.83;47.54;101469.25;4955629;28;20031;-64
2023/07/09 05:00:00;;;;;;;8.25;5.30;;;;;;;28.91;47.41;101467.22;4955613;28;20043;-63
2023/07/09 05:02:25;;;;;;;12.20;5.13;;;;;;;29.01;46.71;101473.88;4956616;28;20035;-63
2023/07/09 05:04:51;;;;;;;9.45;5.32;;;;;;;29.09;47.16;101468.00;4956703;28;20043;-63
2023/07/09 05:07:16;;;;;;;10.13;5.07;;;;;;;29.22;46.51;101473.38;4971548;28;20039;-63
2023/07/09 05:09:42;;;;;;;10.05;5.30;;;;;;;29.33;46.51;101457.91;4956906;28;20043;-64
2023/07/09 05:12:08;;;;;;;6.80;4.93;;;;;;;29.46;47.21;101468.72;4956612;28;20047;-63
2023/07/09 05:14:33;;;;;;;11.68;5.55;;;;;;;29.58;47.03;101468.75;4955359;28;20034;-63
2023/07/09 05:16:59;;;;;;;8.70;4.45;;;;;;;29.69;46.73;101462.38;4939216;28;20031;-63
2023/07/09 05:19:24;;;;;;;9.73;4.85;;;;;;;29.81;46.74;101466.88;4956477;28;20499;-64
2023/07/09 05:21:50;;;;;;;9.23;6.47;;;;;;;29.93;46.30;101469.63;4955355;28;20398;-65
2023/07/09 05:24:15;;;;;;;6.82;4.95;;;;;;;30.04;46.56;101466.00;4956358;28;20039;-64
2023/07/09 05:26:40;;;;;;;9.77;4.55;;;;;;;30.20;46.55;101458.91;4949720;28;20108;-64
2023/07/09 05:29:06;;;;;;;12.38;5.07;;;;;;;30.35;46.08;101462.00;4955207;28;20031;-64
2023/07/09 05:31:32;;;;;;;10.88;5.40;;;;;;;30.50;46.05;101465.97;4955131;28;20138;-64
2023/07/09 05:34:01;;;;;;;11.80;5.03;;;;;;;30.64;45.61;101457.38;4986551;28;20094;-63
2023/07/09 05:36:28;;;;;;;13.60;5.10;;;;;;;30.80;45.64;101462.13;4954791;28;20062;-64
2023/07/09 05:38:53;;;;;;;10.27;5.47;;;;;;;30.93;45.97;101457.16;4956182;28;20035;-64
2023/07/09 05:41:19;;;;;;;9.68;5.43;;;;;;;31.11;45.57;101456.09;4987234;28;20046;-64
2023/07/09 05:43:44;;;;;;;8.82;4.80;;;;;;;31.27;45.29;101460.81;4954898;28;20031;-64
2023/07/09 05:46:10;;;;;;;10.95;5.45;;;;;;;31.43;45.30;101454.47;4955067;28;20043;-64
2023/07/09 05:48:36;;;;;;;10.32;5.32;;;;;;;31.61;45.18;101457.00;4955250;28;20039;-66
2023/07/09 05:51:01;;;;;;;11.10;4.45;;;;;;;31.77;45.07;101449.75;4956205;28;20050;-65
2023/07/09 05:53:27;;;;;;;10.25;4.95;;;;;;;31.95;44.48;101459.72;4955256;28;20502;-64
2023/07/09 05:55:54;;;;;;;8.18;4.82;;;;;;;32.13;44.26;101459.47;4954635;28;20039;-70
2023/07/09 05:58:19;;;;;;;7.60;4.60;;;;;;;32.32;43.78;101463.63;4954512;28;20035;-64
2023/07/09 06:00:44;;;;;;;8.60;4.90;;;;;;;32.45;43.77;101468.78;4954738;28;20031;-64
2023/07/09 06:03:10;;;;;;;9.48;5.00;;;;;;;32.64;43.78;101466.53;4954569;28;20034;-64
2023/07/09 06:05:35;;;;;;;9.77;5.53;;;;;;;32.80;43.61;101472.00;4938261;28;20043;-65
2023/07/09 06:08:01;;;;;;;9.43;5.82;;;;;;;33.00;43.41;101465.00;4986572;28;20387;-64
2023/07/09 06:10:26;;;;;;;8.02;5.20;;;;;;;33.17;42.79;101465.75;4938033;28;20044;-65
2023/07/09 06:12:52;;;;;;;10.60;4.70;;;;;;;33.31;43.13;101465.06;4954715;28;20090;-64
2023/07/09 06:15:18;;;;;;;11.27;5.70;;;;;;;33.49;42.41;101469.38;4940148;28;20035;-65
2023/07/09 06:17:43;;;;;;;9.65;5.50;;;;;;;33.66;42.58;101464.56;4988667;28;20374;-64
2023/07/09 06:20:09;;;;;;;10.85;5.10;;;;;;;33.82;41.73;101471.88;4939813;28;20077;-65
2023/07/09 06:22:35;;;;;;;8.98;4.80;;;;;;;33.96;41.82;101464.75;4955989;28;20410;-65
2023/07/09 06:25:00;;;;;;;11.48;5.53;;;;;;;34.14;41.39;101471.84;4939415;28;20039;-65
2023/07/09 06:27:26;;;;;;;7.68;5.15;;;;;;;34.32;41.86;101467.75;4971515;28;20031;-64
2023/07/09 06:29:51;;;;;;;7.30;4.70;;;;;;;34.47;41.11;101465.06;4988143;28;20119;-64
2023/07/09 06:32:17;;;;;;;9.45;4.70;;;;;;;34.66;41.50;101469.03;4956664;28;20040;-64
2023/07/09 06:34:42;;;;;;;8.15;4.68;;;;;;;34.84;41.33;101476.06;4955788;28;20027;-64
2023/07/09 06:37:07;;;;;;;10.25;4.93;;;;;;;35.00;41.03;101473.03;4955026;28;20035;-65
2023/07/09 06:39:33;;;;;;;10.15;5.50;;;;;;;35.18;40.29;101473.66;4954653;28;20522;-65
2023/07/09 06:41:59;;;;;;;6.63;4.47;;;;;;;35.35;40.78;101477.00;4955718;28;20506;-65
2023/07/09 06:44:25;;;;;;;8.65;4.60;;;;;;;35.49;40.07;101478.13;4953852;28;20035;-65
2023/07/09 06:46:51;;;;;;;10.00;4.70;;;;;;;35.65;40.30;101477.06;4937804;28;20506;-66
2023/07/09 06:49:16;;;;;;;8.95;4.68;;;;;;;35.83;39.82;101472.84;4953489;28;20042;-65
2023/07/09 06:51:42;;;;;;;7.90;3.85;;;;;;;36.00;39.81;101479.78;4954392;28;20086;-65
2023/07/09 06:54:08;;;;;;;6.15;4.05;;;;;;;36.16;39.23;101477.81;4954237;28;20043;-65
2023/07/09 06:56:34;;;;;;;5.03;3.63;;;;;;;36.30;38.91;101475.25;4969565;28;20115;-65
2023/07/09 06:58:59;;;;;;;12.60;4.25;;;;;;;36.46;38.78;101472.13;4937534;28;20122;-65
2023/07/09 07:01:25;;;;;;;9.13;4.00;;;;;;;36.63;38.26;101471.81;4953471;28;20066;-66
2023/07/09 07:03:50;;;;;;;8.75;3.63;;;;;;;36.77;37.74;101472.84;4954826;28;20035;-65
2023/07/09 07:06:16;;;;;;;9.48;4.30;;;;;;;36.91;37.51;101471.06;4937431;28;20050;-65
2023/07/09 07:08:41;;;;;;;7.63;3.35;;;;;;;37.04;37.12;101473.28;4954934;28;20048;-65
2023/07/09 07:11:07;;;;;;;6.75;3.30;;;;;;;37.21;37.12;101468.13;4953103;28;20435;-64
2023/07/09 07:13:35;;;;;;;6.93;3.45;;;;;;;37.42;36.96;101470.75;4954432;28;20395;-65
2023/07/09 07:16:02;;;;;;;5.10;3.38;;;;;;;37.60;36.42;101465.31;4937484;28;20114;-65
2023/07/09 07:18:27;;;;;;;11.38;5.10;;;;;;;37.79;35.86;101469.03;4953417;28;20032;-65
2023/07/09 07:20:53;;;;;;;4.47;2.90;;;;;;;37.96;36.34;101460.22;4937250;28;20027;-65
2023/07/09 07:23:19;;;;;;;3.78;2.83;;;;;;;38.11;35.61;101471.22;4937457;28;20459;-65
2023/07/09 07:25:45;;;;;;;4.18;2.80;;;;;;;38.30;35.94;101474.94;4969276;28;20035;-65
2023/07/09 07:28:11;;;;;;;9.50;2.97;;;;;;;38.47;35.42;101464.09;4953331;28;20031;-65
2023/07/09 07:30:36;;;;;;;6.00;2.83;;;;;;;38.66;35.55;101461.34;4953265;28;20095;-65
2023/07/09 07:33:03;;;;;;;7.43;3.10;;;;;;;38.82;35.08;101464.78;4937284;28;20411;-65
2023/07/09 07:35:28;;;;;;;6.47;2.80;;;;;;;39.00;34.77;101463.97;4953101;28;20526;-65
2023/07/09 07:37:53;;;;;;;4.22;2.90;;;;;;;39.17;33.75;101469.84;4953278;28;20039;-65
2023/07/09 07:40:19;;;;;;;4.45;2.33;;;;;;;39.36;33.29;101462.28;4953630;28;20035;-65
2023/07/09 07:42:46;;;;;;;5.10;2.83;;;;;;;39.53;33.81;101461.72;4953397;28;20051;-65
2023/07/09 07:45:12;;;;;;;6.57;2.70;;;;;;;39.69;33.41;101462.31;4954460;28;20094;-65
2023/07/09 07:47:37;;;;;;;4.80;2.67;;;;;;;39.82;32.49;101473.56;4985556;28;20118;-63
2023/07/09 07:50:03;;;;;;;5.25;2.90;;;;;;;39.97;33.03;101464.84;4936988;28;20384;-62
2023/07/09 07:52:28;;;;;;;7.45;2.42;;;;;;;40.10;32.39;101463.22;4953052;28;20040;-62
2023/07/09 07:54:54;;;;;;;8.13;3.20;;;;;;;40.22;32.04;101463.53;4953094;28;20155;-63
2023/07/09 07:57:21;;;;;;;5.55;2.63;;;;;;;40.40;32.19;101461.78;4956120;28;20035;-64
2023/07/09 07:59:46;;;;;;;3.83;2.58;;;;;;;40.56;32.06;101460.31;4956793;28;20035;-63
2023/07/09 08:02:13;;;;;;;5.53;2.42;;;;;;;40.76;31.52;101461.84;4956716;28;20407;-63
2023/07/09 08:04:40;;;;;;;11.68;3.70;;;;;;;40.93;30.99;101464.88;4956818;28;20545;-65
2023/07/09 08:07:07;;;;;;;5.57;3.20;;;;;;;41.10;30.89;101459.34;4956787;28;20042;-62
2023/07/09 08:09:33;;;;;;;5.32;2.45;;;;;;;41.21;30.31;101461.59;4940274;28;20054;-63
2023/07/09 08:11:58;;;;;;;6.20;2.88;;;;;;;41.29;29.99;101456.38;4940386;28;20031;-63
2023/07/09 08:14:23;;;;;;;5.55;3.30;;;;;;;41.42;29.94;101453.53;4957708;28;20054;-63
2023/07/09 08:16:49;;;;;;;8.63;2.65;;;;;;;41.56;29.95;101457.09;4940414;28;20119;-62
2023/07/09 08:19:17;;;;;;;7.55;2.63;;;;;;;41.69;30.03;101453.38;4972578;28;20050;-62
2023/07/09 08:21:43;;;;;;;4.88;2.72;;;;;;;41.88;29.58;101455.16;4940227;28;20499;-63
2023/07/09 08:24:08;;;;;;;5.88;2.58;;;;;;;42.03;29.68;101454.72;4957486;28;20094;-64
2023/07/09 08:26:34;;;;;;;4.70;2.63;;;;;;;42.17;29.30;101447.00;4956306;28;20031;-62
2023/07/09 08:28:59;;;;;;;4.72;2.60;;;;;;;42.30;28.95;101440.41;4940507;28;20094;-62
2023/07/09 08:31:24;;;;;;;4.03;2.22;;;;;;;42.46;29.02;101435.16;4957489;28;20409;-62
2023/07/09 08:33:50;;;;;;;5.90;2.50;;;;;;;42.65;28.72;101447.84;4972090;28;20031;-63
2023/07/09 08:36:15;;;;;;;8.18;3.28;;;;;;;42.80;28.05;101443.72;4940033;28;20038;-62
2023/07/09 08:38:40;;;;;;;6.30;2.55;;;;;;;43.00;28.45;101440.25;4972212;28;20035;-63
2023/07/09 08:41:06;;;;;;;5.28;2.70;;;;;;;43.12;27.97;101440.41;4956001;28;20398;-63
2023/07/09 08:44:15;;;;;;;4.45;2.50;;;;;;;43.28;27.71;101440.72;4956980;28;20031;-63
2023/07/09 08:47:02;;;;;;;3.50;2.55;;;;;;;43.41;27.54;101439.75;4956783;28;20471;-63
2023/07/09 08:49:37;;;;;;;3.58;2.55;;;;;;;43.54;27.13;101433.06;4957061;28;20038;-63
2023/07/09 08:52:09;;;;;;;3.55;2.67;;;;;;;43.67;27.32;101432.03;4955633;28;20047;-63
2023/07/09 08:54:36;;;;;;;9.18;3.67;;;;;;;43.75;26.74;101434.03;4972506;28;20035;-63
2023/07/09 08:57:16;;;;;;;6.68;2.75;;;;;;;43.89;26.51;101436.66;4955827;28;20050;-63
2023/07/09 08:59:42;;;;;;;8.87;2.90;;;;;;;43.99;26.26;101428.63;4960606;28;20565;-66
2023/07/09 09:02:16;;;;;;;6.20;2.63;;;;;;;44.12;26.60;101425.88;4955327;28;20122;-67
2023/07/09 09:04:42;;;;;;;9.52;2.80;;;;;;;44.29;26.14;101415.34;4955521;28;20046;-66
2023/07/09 09:07:10;;;;;;;7.32;3.35;;;;;;;44.43;26.56;101415.09;4954799;28;20032;-66
2023/07/09 09:09:41;;;;;;;6.03;2.83;;;;;;;44.55;26.22;101413.22;4956330;28;20043;-66
2023/07/09 09:12:23;;;;;;;5.30;3.80;;;;;;;44.72;26.37;101428.41;4939349;29;20051;-65
2023/07/09 09:14:59;;;;;;;6.30;3.28;;;;;;;44.82;25.90;101423.16;4955295;28;20265;-65
2023/07/09 09:17:28;;;;;;;9.82;3.47;;;;;;;44.91;25.51;101432.44;4955286;28;20106;-65
2023/07/09 09:20:23;;;;;;;10.25;3.90;;;;;;;45.06;26.21;101433.81;4939807;29;20036;-65
2023/07/09 09:22:50;;;;;;;4.50;3.15;;;;;;;45.15;25.71;101435.34;4935576;28;20098;-67
2023/07/09 09:25:15;;;;;;;4.80;3.15;;;;;;;45.32;25.88;101442.06;4952100;28;20031;-67
2023/07/09 09:27:41;;;;;;;12.13;3.60;;;;;;;45.40;25.74;101432.66;4936381;28;20399;-65
2023/07/09 09:30:14;;;;;;;4.10;2.63;;;;;;;45.50;25.34;101426.56;4920345;28;20058;-66
2023/07/09 09:32:44;;;;;;;7.45;3.90;;;;;;;45.60;25.46;101426.09;4952014;28;20036;-66
2023/07/09 09:35:14;;;;;;;5.65;3.28;;;;;;;45.70;25.11;101420.03;4920213;28;20028;-66
2023/07/09 09:37:40;;;;;;;5.30;3.08;;;;;;;45.83;24.87;101416.00;4919999;29;20083;-66
2023/07/09 09:40:09;;;;;;;3.53;3.10;;;;;;;45.94;24.67;101410.69;4937345;28;20411;-66
2023/07/09 09:42:34;;;;;;;5.80;2.95;;;;;;;46.07;24.43;101416.03;4936782;28;20055;-65
2023/07/09 09:45:00;;;;;;;4.60;2.80;;;;;;;46.16;24.42;101398.91;4920105;29;20059;-66
2023/07/09 09:47:28;;;;;;;4.47;2.85;;;;;;;46.23;24.13;101396.31;4920100;29;20127;-67
2023/07/09 09:49:54;;;;;;;5.38;3.05;;;;;;;46.24;24.32;101407.28;4920004;29;20039;-67
2023/07/09 09:52:20;;;;;;;5.47;2.72;;;;;;;46.27;23.73;101402.91;4935485;29;20066;-67
2023/07/09 09:54:54;;;;;;;5.03;2.85;;;;;;;46.32;23.96;101397.00;4935568;29;20036;-67
2023/07/09 09:57:22;;;;;;;5.80;3.15;;;;;;;46.40;23.85;101398.09;4919498;29;20032;-67
2023/07/09 09:59:48;;;;;;;6.75;3.05;;;;;;;46.57;23.86;101403.50;4951478;28;20048;-65
2023/07/09 10:02:22;;;;;;;4.22;2.90;;;;;;;46.82;23.35;101413.63;4920599;29;20039;-68
2023/07/09 10:04:48;;;;;;;4.78;4.20;;;;;;;47.23;23.29;101426.63;4936749;29;20454;-68
2023/07/09 10:07:30;;;;;;;28.83;27.05;;;;;;;47.79;23.02;101425.34;4920895;29;20114;-67
2023/07/09 10:09:55;;;;;;;54.13;51.30;;;;;;;48.41;22.46;101426.53;4936449;29;20075;-68
2023/07/09 10:12:59;;;;;;;11.35;4.85;;;;;;;49.54;21.94;101426.13;4935560;29;20571;-68
2023/07/09 10:15:30;;;;;;;5.53;3.20;;;;;;;50.61;20.80;101421.91;4911501;29;20032;-67
2023/07/09 10:18:19;;;;;;;5.82;3.63;;;;;;;51.16;20.30;101413.63;4899861;29;20032;-67
2023/07/09 10:20:51;;;;;;;4.85;3.00;;;;;;;50.79;20.89;101412.75;4916022;29;20028;-67
2023/07/09 10:23:29;;;;;;;4.88;3.00;;;;;;;50.40;20.96;101415.84;4915634;29;20143;-67
2023/07/09 10:26:07;;;;;;;4.05;3.15;;;;;;;50.09;21.06;101419.03;4915083;29;20020;-67
2023/07/09 10:28:42;;;;;;;4.07;3.53;;;;;;;49.79;21.14;101421.72;4915074;29;20099;-67
2023/07/09 10:31:35;;;;;;;8.32;3.35;;;;;;;49.60;21.35;101401.03;4914981;29;20080;-67
2023/07/09 10:34:30;;;;;;;6.43;3.33;;;;;;;49.52;21.10;101402.91;4915087;29;20084;-67
2023/07/09 10:37:19;;;;;;;6.57;3.38;;;;;;;49.54;21.19;101395.59;4912272;29;20037;-66
2023/07/09 10:39:50;;;;;;;4.60;3.60;;;;;;;49.57;21.17;101394.84;4914855;29;20083;-67
2023/07/09 10:42:24;;;;;;;4.15;3.42;;;;;;;49.73;21.15;101391.09;4914763;29;20036;-68
2023/07/09 10:45:22;;;;;;;7.85;4.15;;;;;;;49.74;21.20;101393.53;4915509;29;20048;-67
2023/07/09 10:47:54;;;;;;;4.03;3.13;;;;;;;49.75;21.15;101394.38;4913521;29;20063;-67
2023/07/09 10:50:32;;;;;;;4.00;2.80;;;;;;;49.70;20.92;101391.84;4933132;28;20395;-67
2023/07/09 10:53:02;;;;;;;7.47;3.25;;;;;;;49.55;20.99;101391.56;4936038;28;20039;-67
2023/07/09 10:55:37;;;;;;;4.30;3.20;;;;;;;49.39;21.33;101388.00;4950570;28;20550;-67
2023/07/09 10:58:11;;;;;;;3.63;2.90;;;;;;;49.23;21.18;101383.59;4934594;29;20046;-66
2023/07/09 11:00:39;;;;;;;3.08;2.60;;;;;;;49.08;21.30;101385.34;4934523;29;20028;-67
2023/07/09 11:03:38;;;;;;;3.65;2.67;;;;;;;48.89;21.46;101374.78;4919038;29;20041;-67
2023/07/09 11:06:04;;;;;;;3.55;3.17;;;;;;;48.62;21.46;101381.50;4950352;28;20036;-67
2023/07/09 11:08:37;;;;;;;4.68;2.80;;;;;;;48.50;21.76;101380.81;4950652;28;20046;-67
2023/07/09 11:11:07;;;;;;;7.05;3.50;;;;;;;48.29;21.69;101383.97;4950251;28;20419;-66
2023/07/09 11:13:40;;;;;;;6.68;2.85;;;;;;;48.11;21.67;101377.81;4934712;29;20094;-68
2023/07/09 11:16:06;;;;;;;4.35;3.00;;;;;;;47.94;21.84;101383.91;4934619;29;20058;-67
2023/07/09 11:18:33;;;;;;;6.00;2.55;;;;;;;47.74;21.59;101390.69;4919087;29;20036;-67
2023/07/09 11:21:14;;;;;;;3.67;2.60;;;;;;;47.56;21.77;101400.75;4935713;28;20039;-66
2023/07/09 11:23:50;;;;;;;3.47;2.55;;;;;;;47.38;21.80;101398.22;4935659;28;20558;-67
2023/07/09 11:26:22;;;;;;;7.28;2.63;;;;;;;47.20;21.90;101398.94;4918622;28;20500;-66